KPUB/PUB METAR and TAF weather

Enter ICAO airport designator
Station Type Date Time Source
KPUB METAR 2020/10/20 17:53 UTC NOAA

KPUB 201753Z 27013KT 10SM CLR 24/M07 A2991 RMK AO2 SLP095 T02391072 10239 21006 56012


Station Type Date Time Source
KPUB Decoded METAR 2020/10/20 17:53 UTC NOAA

PUEBLO MEMORIAL AIRPORT, CO, United States (KPUB) 38-17N 104-30W 1420M
Oct 20, 2020 - 01:53 PM EDT / 2020.10.20 1753 UTC
Wind: from the W (270 degrees) at 15 MPH (13 KT):0
Visibility: 10 mile(s):0
Sky conditions: clear
Temperature: 75.0 F (23.9 C)
Dew Point: 19.0 F (-7.2 C)
Relative Humidity: 12%
Pressure (altimeter): 29.91 in. Hg (1012 hPa)
Pressure tendency: 0.04 inches (1.2 hPa) lower than three hours ago
ob: KPUB 201753Z 27013KT 10SM CLR 24/M07 A2991 RMK AO2 SLP095 T02391072 10239 21006 56012
cycle: 18

Station Type Date Time Source
KPUB TAF 2020/10/20 18:39 UTC NOAA

TAF KPUB 201736Z 2018/2118 27011G21KT P6SM OVC200
FM202200 09012G22KT P6SM OVC200
FM210100 05013G23KT P6SM BKN250
FM210600 VRB04KT P6SM SCT250
FM211700 23006KT P6SM BKN250

Example: see airport list